This is the latest recevied weather packets stored in our database for station/object SP1BMW-13. If no packets are shown the sender has not sent any weather packets the latest 10 day(s).
| Time | Temp. | Humidity | Pressure | Rain* | Wind** | Luminosity | Snow |
|---|---|---|---|---|---|---|---|
| 1788102818 | 26.67° C | 47% | 1008.3 hPa | 0 mm | 2.68 m/s, 303° | 158 W/m² | - |
| 1788102759 | 26.67° C | 47% | 1008.3 hPa | 0 mm | 1.34 m/s, 227° | 249 W/m² | - |
| 1788102701 | 26.67° C | 47% | 1008.3 hPa | 0 mm | 0.45 m/s, 242° | 113 W/m² | - |
| 1788102638 | 26.67° C | 46% | 1008.2 hPa | 0 mm | 2.68 m/s, 244° | 109 W/m² | - |
| 1788102578 | 27.22° C | 46% | 1008.2 hPa | 0 mm | 1.34 m/s, 157° | 273 W/m² | - |
| 1788102521 | 27.22° C | 45% | 1008.3 hPa | 0 mm | 2.68 m/s, 273° | 127 W/m² | - |
| 1788102459 | 27.22° C | 46% | 1008.2 hPa | 0 mm | 0.89 m/s, 251° | 245 W/m² | - |
| 1788102401 | 27.22° C | 45% | 1008.3 hPa | 0 mm | 1.79 m/s, 250° | 323 W/m² | - |
| 1788102344 | 27.22° C | 45% | 1008.2 hPa | 0 mm | 2.24 m/s, 277° | 327 W/m² | - |
| 1788102278 | 27.22° C | 45% | 1008.3 hPa | 0 mm | 2.68 m/s, 260° | 338 W/m² | - |
| 1788102218 | 27.22° C | 44% | 1008.2 hPa | 0 mm | 1.79 m/s, 169° | 343 W/m² | - |
| 1788102158 | 27.22° C | 44% | 1008.2 hPa | 0 mm | 2.24 m/s, 183° | 349 W/m² | - |
| 1788102098 | 27.22° C | 45% | 1008.1 hPa | 0 mm | 1.34 m/s, 225° | 345 W/m² | - |
| 1788102038 | 27.22° C | 46% | 1008.1 hPa | 0 mm | 1.34 m/s, 167° | 348 W/m² | - |
| 1788101978 | 27.22° C | 46% | 1008.2 hPa | 0 mm | 1.34 m/s, 279° | 302 W/m² | - |
| 1788101920 | 27.22° C | 46% | 1008.2 hPa | 0 mm | 1.34 m/s, 281° | 355 W/m² | - |
| 1788101858 | 26.67° C | 46% | 1008.2 hPa | 0 mm | 0.89 m/s, 261° | 389 W/m² | - |
| 1788101798 | 26.67° C | 46% | 1008 hPa | 0 mm | 1.34 m/s, 275° | 391 W/m² | - |
| 1788101740 | 26.67° C | 46% | 1008.2 hPa | 0 mm | 1.79 m/s, 207° | 407 W/m² | - |
| 1788101678 | 26.67° C | 47% | 1008.1 hPa | 0 mm | 1.79 m/s, 228° | 414 W/m² | - |
| 1788101618 | 26.67° C | 47% | 1007.8 hPa | 0 mm | 3.13 m/s, 329° | 414 W/m² | - |
| 1788101558 | 26.11° C | 47% | 1008.2 hPa | 0 mm | 1.79 m/s, 316° | 399 W/m² | - |
| 1788101498 | 26.11° C | 47% | 1008.1 hPa | 0 mm | 0.45 m/s, 197° | 386 W/m² | - |
| 1788101438 | 26.11° C | 47% | 1008.3 hPa | 0 mm | 0.89 m/s, 248° | 389 W/m² | - |
| 1788101380 | 26.67° C | 47% | 1008.4 hPa | 0 mm | 0.89 m/s, 176° | 195 W/m² | - |
* Rain latest hour (hover to see other rain measurements)
** Current wind speed in m/s (hover to see current wind gust speed)